Rewey, Wisconsin
Current Conditions -  °F | °C
As of 3:35 AM on Thursday 27 Nov 2014 (Local Time) from KMRJ Reporting Station
Light Snow Light Snow  
Wind Chill: 16°   Ceiling: 2500
Heat Index: 25°   Visibility: 5mi
Dew Point: 21°   Wind: 8mph
Humidity: 86%   Direction: 310°NW
Pressure: 30.26"   Gusts: NA
Location:  42.84°N, 90.4°W
Report Text: KMRJ 270935Z AUTO 31007KT 5SM -SN BKN025 M04/M06 A3026 RMK AO2
Loading
Personal Weather Stations






























Interactive Weather Map New forecast layout! Learn more

10-Day Weather Forecast

Advertisements
Track Severe Weather on mobile